York, Maine
Current Conditions -  °F | °C
As of 7:24 AM on Thursday 18 Dec 2014 (Local Time) from KPSM Reporting Station
Light Rain Light Rain  
Wind Chill: -1°   Ceiling: 2300
Heat Index:   Visibility: 10mi
Dew Point:   Wind: 12mph
Humidity: 81%   Direction: 270°W
Pressure: 29.68"   Gusts: NA
Location:  43.15°N, 70.65°W
Report Text: KPSM 181224Z 27010KT 10SM -RA FEW019 BKN023 03/00 A2968 RMK AO2A
Loading
Personal Weather Stations






























Interactive Weather Map New forecast layout! Learn more

10-Day Weather Forecast

Advertisements
Track Severe Weather on mobile